sensor_id;sensor_type;location;lat;lon;timestamp;temperature;humidity
15900;DHT22;8048;50.644;6.184;2022-10-26T00:02:14;14.20;99.90
15900;DHT22;8048;50.644;6.184;2022-10-26T00:04:39;14.20;99.90
15900;DHT22;8048;50.644;6.184;2022-10-26T00:07:05;14.20;99.90
15900;DHT22;8048;50.644;6.184;2022-10-26T00:09:30;14.10;99.90
15900;DHT22;8048;50.644;6.184;2022-10-26T00:11:56;14.20;99.90
15900;DHT22;8048;50.644;6.184;2022-10-26T00:14:21;14.20;99.90
15900;DHT22;8048;50.644;6.184;2022-10-26T00:16:47;14.20;99.90
15900;DHT22;8048;50.644;6.184;2022-10-26T00:19:13;14.30;99.90
15900;DHT22;8048;50.644;6.184;2022-10-26T00:21:38;14.20;99.90
15900;DHT22;8048;50.644;6.184;2022-10-26T00:24:04;14.30;99.80
15900;DHT22;8048;50.644;6.184;2022-10-26T00:26:29;14.30;99.90
15900;DHT22;8048;50.644;6.184;2022-10-26T00:28:55;14.30;99.80
15900;DHT22;8048;50.644;6.184;2022-10-26T00:31:22;14.20;99.80
15900;DHT22;8048;50.644;6.184;2022-10-26T00:33:52;14.30;99.70
15900;DHT22;8048;50.644;6.184;2022-10-26T00:36:18;14.30;99.50
15900;DHT22;8048;50.644;6.184;2022-10-26T00:38:48;14.30;99.20
15900;DHT22;8048;50.644;6.184;2022-10-26T00:41:15;14.30;99.10
15900;DHT22;8048;50.644;6.184;2022-10-26T00:43:41;14.40;99.10
15900;DHT22;8048;50.644;6.184;2022-10-26T00:46:16;14.40;99.20
15900;DHT22;8048;50.644;6.184;2022-10-26T00:48:45;14.50;99.00
15900;DHT22;8048;50.644;6.184;2022-10-26T00:51:32;14.50;98.60
15900;DHT22;8048;50.644;6.184;2022-10-26T00:54:02;14.50;98.50
15900;DHT22;8048;50.644;6.184;2022-10-26T00:56:29;14.60;98.40
15900;DHT22;8048;50.644;6.184;2022-10-26T00:58:59;14.60;98.10
15900;DHT22;8048;50.644;6.184;2022-10-26T01:01:26;14.70;98.10
15900;DHT22;8048;50.644;6.184;2022-10-26T01:03:52;14.60;98.10
15900;DHT22;8048;50.644;6.184;2022-10-26T01:06:18;14.60;98.30
15900;DHT22;8048;50.644;6.184;2022-10-26T01:08:45;14.70;98.30
15900;DHT22;8048;50.644;6.184;2022-10-26T01:11:11;14.70;98.20
15900;DHT22;8048;50.644;6.184;2022-10-26T01:13:37;14.70;98.30
15900;DHT22;8048;50.644;6.184;2022-10-26T01:19:20;14.60;98.20
15900;DHT22;8048;50.644;6.184;2022-10-26T01:27:33;14.70;98.30
15900;DHT22;8048;50.644;6.184;2022-10-26T01:38:19;14.70;98.50
15900;DHT22;8048;50.644;6.184;2022-10-26T01:44:11;14.70;98.70
15900;DHT22;8048;50.644;6.184;2022-10-26T01:46:41;14.70;98.80
15900;DHT22;8048;50.644;6.184;2022-10-26T01:49:10;14.70;98.60
15900;DHT22;8048;50.644;6.184;2022-10-26T01:51:39;14.60;99.00
15900;DHT22;8048;50.644;6.184;2022-10-26T01:54:06;14.60;99.10
15900;DHT22;8048;50.644;6.184;2022-10-26T01:56:35;14.60;99.20
15900;DHT22;8048;50.644;6.184;2022-10-26T02:11:20;14.50;99.40
15900;DHT22;8048;50.644;6.184;2022-10-26T02:13:46;14.50;99.30
15900;DHT22;8048;50.644;6.184;2022-10-26T02:19:06;14.50;99.10
15900;DHT22;8048;50.644;6.184;2022-10-26T02:21:43;14.50;98.80
15900;DHT22;8048;50.644;6.184;2022-10-26T02:24:12;14.50;98.50
15900;DHT22;8048;50.644;6.184;2022-10-26T02:26:41;14.50;98.60
15900;DHT22;8048;50.644;6.184;2022-10-26T02:29:11;14.50;98.60
15900;DHT22;8048;50.644;6.184;2022-10-26T02:31:39;14.50;98.70
15900;DHT22;8048;50.644;6.184;2022-10-26T02:34:08;14.50;98.90
15900;DHT22;8048;50.644;6.184;2022-10-26T02:36:38;14.50;98.80
15900;DHT22;8048;50.644;6.184;2022-10-26T02:39:06;14.50;98.80
15900;DHT22;8048;50.644;6.184;2022-10-26T02:41:33;14.50;99.00
15900;DHT22;8048;50.644;6.184;2022-10-26T02:44:17;14.50;99.20
15900;DHT22;8048;50.644;6.184;2022-10-26T02:46:46;14.50;99.20
15900;DHT22;8048;50.644;6.184;2022-10-26T02:49:12;14.50;99.50
15900;DHT22;8048;50.644;6.184;2022-10-26T02:54:53;14.40;99.90
15900;DHT22;8048;50.644;6.184;2022-10-26T02:57:35;14.40;99.90
15900;DHT22;8048;50.644;6.184;2022-10-26T03:00:08;14.40;99.90
15900;DHT22;8048;50.644;6.184;2022-10-26T03:02:34;14.30;99.90
15900;DHT22;8048;50.644;6.184;2022-10-26T03:05:09;14.30;99.90
15900;DHT22;8048;50.644;6.184;2022-10-26T03:07:36;14.30;99.90
15900;DHT22;8048;50.644;6.184;2022-10-26T03:10:02;14.30;99.90
15900;DHT22;8048;50.644;6.184;2022-10-26T03:12:27;14.30;99.90
15900;DHT22;8048;50.644;6.184;2022-10-26T03:14:53;14.30;99.90
15900;DHT22;8048;50.644;6.184;2022-10-26T03:17:18;14.30;99.90
15900;DHT22;8048;50.644;6.184;2022-10-26T03:19:44;14.40;99.60
15900;DHT22;8048;50.644;6.184;2022-10-26T03:22:09;14.40;99.30
15900;DHT22;8048;50.644;6.184;2022-10-26T03:24:35;14.50;99.20
15900;DHT22;8048;50.644;6.184;2022-10-26T03:27:00;14.50;99.40
15900;DHT22;8048;50.644;6.184;2022-10-26T03:29:26;14.50;99.30
15900;DHT22;8048;50.644;6.184;2022-10-26T03:31:51;14.50;99.60
15900;DHT22;8048;50.644;6.184;2022-10-26T03:34:19;14.40;99.60
15900;DHT22;8048;50.644;6.184;2022-10-26T03:36:45;14.40;99.90
15900;DHT22;8048;50.644;6.184;2022-10-26T03:39:11;14.40;99.90
15900;DHT22;8048;50.644;6.184;2022-10-26T03:41:36;14.30;99.90
15900;DHT22;8048;50.644;6.184;2022-10-26T03:44:02;14.30;99.90
15900;DHT22;8048;50.644;6.184;2022-10-26T03:46:27;14.20;99.90
15900;DHT22;8048;50.644;6.184;2022-10-26T03:48:53;14.20;99.90
15900;DHT22;8048;50.644;6.184;2022-10-26T03:51:18;14.20;99.90
15900;DHT22;8048;50.644;6.184;2022-10-26T03:53:44;14.20;99.90
15900;DHT22;8048;50.644;6.184;2022-10-26T03:56:09;14.10;99.90
15900;DHT22;8048;50.644;6.184;2022-10-26T03:58:35;14.00;99.90
15900;DHT22;8048;50.644;6.184;2022-10-26T04:01:00;14.00;99.90
15900;DHT22;8048;50.644;6.184;2022-10-26T04:03:26;13.90;99.90
15900;DHT22;8048;50.644;6.184;2022-10-26T04:05:51;13.90;99.90
15900;DHT22;8048;50.644;6.184;2022-10-26T04:08:17;14.00;99.90
15900;DHT22;8048;50.644;6.184;2022-10-26T04:10:44;13.90;99.90
15900;DHT22;8048;50.644;6.184;2022-10-26T04:13:10;13.90;99.90
15900;DHT22;8048;50.644;6.184;2022-10-26T04:15:37;13.90;99.90
15900;DHT22;8048;50.644;6.184;2022-10-26T04:18:02;13.90;99.90
15900;DHT22;8048;50.644;6.184;2022-10-26T04:20:29;14.00;99.90
15900;DHT22;8048;50.644;6.184;2022-10-26T04:23:00;14.10;99.90
15900;DHT22;8048;50.644;6.184;2022-10-26T04:25:26;14.10;99.90
15900;DHT22;8048;50.644;6.184;2022-10-26T04:27:52;14.00;99.90
15900;DHT22;8048;50.644;6.184;2022-10-26T04:30:18;14.10;99.90
15900;DHT22;8048;50.644;6.184;2022-10-26T04:32:43;14.10;99.80
15900;DHT22;8048;50.644;6.184;2022-10-26T04:35:09;14.20;99.60
15900;DHT22;8048;50.644;6.184;2022-10-26T04:37:34;14.20;99.50
15900;DHT22;8048;50.644;6.184;2022-10-26T04:40:00;14.10;99.90
15900;DHT22;8048;50.644;6.184;2022-10-26T04:42:25;14.20;99.90
15900;DHT22;8048;50.644;6.184;2022-10-26T04:44:51;14.20;99.90
15900;DHT22;8048;50.644;6.184;2022-10-26T04:47:16;14.20;99.90
15900;DHT22;8048;50.644;6.184;2022-10-26T04:49:42;14.10;99.90
15900;DHT22;8048;50.644;6.184;2022-10-26T04:52:07;14.10;99.90
15900;DHT22;8048;50.644;6.184;2022-10-26T04:54:33;14.10;99.90
15900;DHT22;8048;50.644;6.184;2022-10-26T04:56:58;14.00;99.90
15900;DHT22;8048;50.644;6.184;2022-10-26T04:59:24;14.00;99.90
15900;DHT22;8048;50.644;6.184;2022-10-26T05:01:49;13.90;99.90
15900;DHT22;8048;50.644;6.184;2022-10-26T05:04:15;13.80;99.90
15900;DHT22;8048;50.644;6.184;2022-10-26T05:06:40;13.80;99.90
15900;DHT22;8048;50.644;6.184;2022-10-26T05:09:06;13.70;99.90
15900;DHT22;8048;50.644;6.184;2022-10-26T05:11:31;13.70;99.90
15900;DHT22;8048;50.644;6.184;2022-10-26T05:13:57;13.70;99.90
15900;DHT22;8048;50.644;6.184;2022-10-26T05:16:22;13.60;99.90
15900;DHT22;8048;50.644;6.184;2022-10-26T05:18:48;13.50;99.90
15900;DHT22;8048;50.644;6.184;2022-10-26T05:21:14;13.50;99.90
15900;DHT22;8048;50.644;6.184;2022-10-26T05:23:50;13.50;99.90
15900;DHT22;8048;50.644;6.184;2022-10-26T05:26:18;13.50;99.90
15900;DHT22;8048;50.644;6.184;2022-10-26T05:28:44;13.50;99.90
15900;DHT22;8048;50.644;6.184;2022-10-26T05:31:09;13.50;99.90
15900;DHT22;8048;50.644;6.184;2022-10-26T05:33:35;13.40;99.90
15900;DHT22;8048;50.644;6.184;2022-10-26T05:36:00;13.40;99.90
15900;DHT22;8048;50.644;6.184;2022-10-26T05:38:26;13.40;99.90
15900;DHT22;8048;50.644;6.184;2022-10-26T05:40:53;13.40;99.90
15900;DHT22;8048;50.644;6.184;2022-10-26T05:43:20;13.40;99.90
15900;DHT22;8048;50.644;6.184;2022-10-26T05:45:46;13.50;99.90
15900;DHT22;8048;50.644;6.184;2022-10-26T05:48:12;13.50;99.90
15900;DHT22;8048;50.644;6.184;2022-10-26T05:50:37;13.50;99.90
15900;DHT22;8048;50.644;6.184;2022-10-26T05:53:03;13.50;99.90
15900;DHT22;8048;50.644;6.184;2022-10-26T05:55:29;13.60;99.90
15900;DHT22;8048;50.644;6.184;2022-10-26T05:57:55;13.50;99.90
15900;DHT22;8048;50.644;6.184;2022-10-26T06:00:22;13.50;99.90
15900;DHT22;8048;50.644;6.184;2022-10-26T06:08:16;13.50;99.90
15900;DHT22;8048;50.644;6.184;2022-10-26T06:10:42;13.50;99.90
15900;DHT22;8048;50.644;6.184;2022-10-26T06:13:08;13.50;99.90
15900;DHT22;8048;50.644;6.184;2022-10-26T06:15:41;13.40;99.90
15900;DHT22;8048;50.644;6.184;2022-10-26T06:26:22;13.30;99.90
15900;DHT22;8048;50.644;6.184;2022-10-26T06:29:04;13.30;99.90
15900;DHT22;8048;50.644;6.184;2022-10-26T06:31:33;13.30;99.90
15900;DHT22;8048;50.644;6.184;2022-10-26T06:33:59;13.30;99.90
15900;DHT22;8048;50.644;6.184;2022-10-26T06:36:26;13.30;99.90
15900;DHT22;8048;50.644;6.184;2022-10-26T06:39:00;13.30;99.90
15900;DHT22;8048;50.644;6.184;2022-10-26T06:41:27;13.30;99.90
15900;DHT22;8048;50.644;6.184;2022-10-26T06:43:55;13.30;99.90
15900;DHT22;8048;50.644;6.184;2022-10-26T06:49:26;13.40;99.90
15900;DHT22;8048;50.644;6.184;2022-10-26T06:54:49;13.50;99.90
15900;DHT22;8048;50.644;6.184;2022-10-26T06:57:20;13.60;99.90
15900;DHT22;8048;50.644;6.184;2022-10-26T06:59:54;13.70;99.90
15900;DHT22;8048;50.644;6.184;2022-10-26T07:02:21;13.70;99.90
15900;DHT22;8048;50.644;6.184;2022-10-26T07:04:46;13.80;99.90
15900;DHT22;8048;50.644;6.184;2022-10-26T07:07:20;13.80;99.90
15900;DHT22;8048;50.644;6.184;2022-10-26T07:09:47;13.70;99.90
15900;DHT22;8048;50.644;6.184;2022-10-26T07:12:13;13.70;99.90
15900;DHT22;8048;50.644;6.184;2022-10-26T07:14:38;13.70;99.90
15900;DHT22;8048;50.644;6.184;2022-10-26T07:17:04;13.70;99.90
15900;DHT22;8048;50.644;6.184;2022-10-26T07:19:30;13.60;99.90
15900;DHT22;8048;50.644;6.184;2022-10-26T07:21:56;13.60;99.90
15900;DHT22;8048;50.644;6.184;2022-10-26T07:24:24;13.60;99.90
15900;DHT22;8048;50.644;6.184;2022-10-26T07:26:50;13.70;99.90
15900;DHT22;8048;50.644;6.184;2022-10-26T07:29:15;13.80;99.90
15900;DHT22;8048;50.644;6.184;2022-10-26T07:31:42;13.70;99.90
15900;DHT22;8048;50.644;6.184;2022-10-26T07:34:08;13.80;99.90
15900;DHT22;8048;50.644;6.184;2022-10-26T07:36:33;13.90;99.90
15900;DHT22;8048;50.644;6.184;2022-10-26T07:39:02;14.00;99.90
15900;DHT22;8048;50.644;6.184;2022-10-26T07:41:27;14.10;99.90
15900;DHT22;8048;50.644;6.184;2022-10-26T07:43:53;14.20;99.90
15900;DHT22;8048;50.644;6.184;2022-10-26T07:46:18;14.40;99.90
15900;DHT22;8048;50.644;6.184;2022-10-26T07:48:44;14.60;99.90
15900;DHT22;8048;50.644;6.184;2022-10-26T07:51:09;14.70;99.90
15900;DHT22;8048;50.644;6.184;2022-10-26T07:53:35;14.80;99.90
15900;DHT22;8048;50.644;6.184;2022-10-26T07:56:00;14.90;99.90
15900;DHT22;8048;50.644;6.184;2022-10-26T07:58:26;15.00;99.90
15900;DHT22;8048;50.644;6.184;2022-10-26T08:00:53;15.10;99.90
15900;DHT22;8048;50.644;6.184;2022-10-26T08:03:20;15.20;99.90
15900;DHT22;8048;50.644;6.184;2022-10-26T08:05:47;15.20;99.90
15900;DHT22;8048;50.644;6.184;2022-10-26T08:08:16;15.20;99.90
15900;DHT22;8048;50.644;6.184;2022-10-26T08:10:43;15.20;99.90
15900;DHT22;8048;50.644;6.184;2022-10-26T08:13:09;15.30;99.90
15900;DHT22;8048;50.644;6.184;2022-10-26T08:15:35;15.40;99.90
15900;DHT22;8048;50.644;6.184;2022-10-26T08:18:00;15.40;99.90
15900;DHT22;8048;50.644;6.184;2022-10-26T08:20:26;15.50;99.90
15900;DHT22;8048;50.644;6.184;2022-10-26T08:22:51;15.60;99.90
15900;DHT22;8048;50.644;6.184;2022-10-26T08:25:17;15.70;99.90
15900;DHT22;8048;50.644;6.184;2022-10-26T08:27:43;15.70;99.90
15900;DHT22;8048;50.644;6.184;2022-10-26T08:30:09;15.80;99.90
15900;DHT22;8048;50.644;6.184;2022-10-26T08:32:34;15.90;99.90
15900;DHT22;8048;50.644;6.184;2022-10-26T08:35:00;16.10;99.90
15900;DHT22;8048;50.644;6.184;2022-10-26T08:37:26;16.20;99.90
15900;DHT22;8048;50.644;6.184;2022-10-26T08:39:51;16.30;99.90
15900;DHT22;8048;50.644;6.184;2022-10-26T08:42:38;16.50;99.90
15900;DHT22;8048;50.644;6.184;2022-10-26T08:45:11;16.70;99.90
15900;DHT22;8048;50.644;6.184;2022-10-26T08:47:47;17.00;99.90
15900;DHT22;8048;50.644;6.184;2022-10-26T08:53:06;17.20;99.40
15900;DHT22;8048;50.644;6.184;2022-10-26T08:55:43;17.50;99.90
15900;DHT22;8048;50.644;6.184;2022-10-26T08:58:16;17.80;99.60
15900;DHT22;8048;50.644;6.184;2022-10-26T09:00:44;18.20;99.70
15900;DHT22;8048;50.644;6.184;2022-10-26T09:03:15;18.60;97.40
15900;DHT22;8048;50.644;6.184;2022-10-26T09:05:59;18.90;97.40
15900;DHT22;8048;50.644;6.184;2022-10-26T09:08:50;19.30;97.60
15900;DHT22;8048;50.644;6.184;2022-10-26T09:14:59;20.10;96.10
15900;DHT22;8048;50.644;6.184;2022-10-26T09:19:54;20.80;94.60
15900;DHT22;8048;50.644;6.184;2022-10-26T09:25:17;21.00;94.50
15900;DHT22;8048;50.644;6.184;2022-10-26T09:27:46;21.50;94.00
15900;DHT22;8048;50.644;6.184;2022-10-26T09:30:15;21.80;92.80
15900;DHT22;8048;50.644;6.184;2022-10-26T09:32:47;22.00;92.30
15900;DHT22;8048;50.644;6.184;2022-10-26T09:35:20;22.20;93.00
15900;DHT22;8048;50.644;6.184;2022-10-26T09:37:50;22.50;91.00
15900;DHT22;8048;50.644;6.184;2022-10-26T09:40:28;22.00;91.00
15900;DHT22;8048;50.644;6.184;2022-10-26T09:43:03;22.00;91.10
15900;DHT22;8048;50.644;6.184;2022-10-26T09:45:31;22.40;92.90
15900;DHT22;8048;50.644;6.184;2022-10-26T09:48:06;22.80;90.60
15900;DHT22;8048;50.644;6.184;2022-10-26T09:50:36;23.10;90.90
15900;DHT22;8048;50.644;6.184;2022-10-26T09:53:03;23.40;90.40
15900;DHT22;8048;50.644;6.184;2022-10-26T09:55:30;23.90;90.00
15900;DHT22;8048;50.644;6.184;2022-10-26T09:58:00;23.80;87.80
15900;DHT22;8048;50.644;6.184;2022-10-26T10:00:27;24.20;90.00
15900;DHT22;8048;50.644;6.184;2022-10-26T10:02:55;24.30;88.20
15900;DHT22;8048;50.644;6.184;2022-10-26T10:05:31;24.30;86.50
15900;DHT22;8048;50.644;6.184;2022-10-26T10:08:24;24.60;86.50
15900;DHT22;8048;50.644;6.184;2022-10-26T10:11:06;24.90;86.10
15900;DHT22;8048;50.644;6.184;2022-10-26T10:13:37;25.00;85.10
15900;DHT22;8048;50.644;6.184;2022-10-26T10:18:40;25.50;84.30
15900;DHT22;8048;50.644;6.184;2022-10-26T10:21:06;26.10;83.20
15900;DHT22;8048;50.644;6.184;2022-10-26T10:23:46;26.00;79.60
15900;DHT22;8048;50.644;6.184;2022-10-26T10:26:12;25.90;77.00
15900;DHT22;8048;50.644;6.184;2022-10-26T10:28:40;25.30;81.30
15900;DHT22;8048;50.644;6.184;2022-10-26T10:31:21;25.60;81.80
15900;DHT22;8048;50.644;6.184;2022-10-26T10:33:47;25.50;80.70
15900;DHT22;8048;50.644;6.184;2022-10-26T10:36:21;24.70;79.70
15900;DHT22;8048;50.644;6.184;2022-10-26T10:38:49;24.10;82.10
15900;DHT22;8048;50.644;6.184;2022-10-26T10:41:23;23.90;84.70
15900;DHT22;8048;50.644;6.184;2022-10-26T10:44:13;23.80;87.40
15900;DHT22;8048;50.644;6.184;2022-10-26T10:46:41;23.80;86.40
15900;DHT22;8048;50.644;6.184;2022-10-26T10:49:18;24.20;83.40
15900;DHT22;8048;50.644;6.184;2022-10-26T10:51:44;24.80;83.40
15900;DHT22;8048;50.644;6.184;2022-10-26T10:54:31;25.60;81.70
15900;DHT22;8048;50.644;6.184;2022-10-26T10:57:17;25.60;79.40
15900;DHT22;8048;50.644;6.184;2022-10-26T11:00:19;26.30;79.60
15900;DHT22;8048;50.644;6.184;2022-10-26T11:06:17;27.40;79.70
15900;DHT22;8048;50.644;6.184;2022-10-26T11:08:56;27.50;77.20
15900;DHT22;8048;50.644;6.184;2022-10-26T11:11:43;27.70;74.10
15900;DHT22;8048;50.644;6.184;2022-10-26T11:14:27;27.90;74.30
15900;DHT22;8048;50.644;6.184;2022-10-26T11:17:07;28.70;73.70
15900;DHT22;8048;50.644;6.184;2022-10-26T11:19:45;28.60;73.90
15900;DHT22;8048;50.644;6.184;2022-10-26T11:22:16;28.70;69.80
15900;DHT22;8048;50.644;6.184;2022-10-26T11:24:48;27.90;71.50
15900;DHT22;8048;50.644;6.184;2022-10-26T11:27:21;27.70;71.80
15900;DHT22;8048;50.644;6.184;2022-10-26T11:30:22;27.30;70.90
15900;DHT22;8048;50.644;6.184;2022-10-26T11:33:05;27.10;70.90
15900;DHT22;8048;50.644;6.184;2022-10-26T11:38:28;26.70;71.40
15900;DHT22;8048;50.644;6.184;2022-10-26T11:43:47;26.00;75.70
15900;DHT22;8048;50.644;6.184;2022-10-26T11:49:10;26.20;74.90
15900;DHT22;8048;50.644;6.184;2022-10-26T11:54:41;27.10;74.40
15900;DHT22;8048;50.644;6.184;2022-10-26T11:57:10;27.20;73.50
15900;DHT22;8048;50.644;6.184;2022-10-26T11:59:41;27.30;68.70
15900;DHT22;8048;50.644;6.184;2022-10-26T12:02:14;27.60;69.40
15900;DHT22;8048;50.644;6.184;2022-10-26T12:04:42;27.80;70.10
15900;DHT22;8048;50.644;6.184;2022-10-26T12:07:15;27.70;70.40
15900;DHT22;8048;50.644;6.184;2022-10-26T12:09:44;27.70;69.90
15900;DHT22;8048;50.644;6.184;2022-10-26T12:17:18;27.20;70.00
15900;DHT22;8048;50.644;6.184;2022-10-26T12:22:38;26.80;67.90
15900;DHT22;8048;50.644;6.184;2022-10-26T12:25:22;26.60;70.20
15900;DHT22;8048;50.644;6.184;2022-10-26T12:37:56;27.10;65.70
15900;DHT22;8048;50.644;6.184;2022-10-26T12:45:44;26.80;66.70
15900;DHT22;8048;50.644;6.184;2022-10-26T12:56:59;27.30;64.50
15900;DHT22;8048;50.644;6.184;2022-10-26T12:59:59;27.00;63.20
15900;DHT22;8048;50.644;6.184;2022-10-26T13:02:49;26.90;65.60
15900;DHT22;8048;50.644;6.184;2022-10-26T13:10:59;27.30;64.90
15900;DHT22;8048;50.644;6.184;2022-10-26T13:13:25;27.30;63.20
15900;DHT22;8048;50.644;6.184;2022-10-26T13:15:55;27.30;62.20
15900;DHT22;8048;50.644;6.184;2022-10-26T13:18:22;27.20;64.10
15900;DHT22;8048;50.644;6.184;2022-10-26T13:23:31;27.50;59.90
15900;DHT22;8048;50.644;6.184;2022-10-26T13:26:17;27.60;64.80
15900;DHT22;8048;50.644;6.184;2022-10-26T13:28:44;27.80;62.70
15900;DHT22;8048;50.644;6.184;2022-10-26T13:33:50;27.40;59.80
15900;DHT22;8048;50.644;6.184;2022-10-26T13:36:50;26.90;60.30
15900;DHT22;8048;50.644;6.184;2022-10-26T13:39:21;26.80;62.40
15900;DHT22;8048;50.644;6.184;2022-10-26T13:41:50;26.90;65.90
15900;DHT22;8048;50.644;6.184;2022-10-26T13:47:01;27.20;65.10
15900;DHT22;8048;50.644;6.184;2022-10-26T13:49:32;27.30;63.30
15900;DHT22;8048;50.644;6.184;2022-10-26T13:52:01;27.20;62.60
15900;DHT22;8048;50.644;6.184;2022-10-26T13:54:43;26.70;60.50
15900;DHT22;8048;50.644;6.184;2022-10-26T13:59:53;25.60;62.20
15900;DHT22;8048;50.644;6.184;2022-10-26T14:02:23;25.40;63.70
15900;DHT22;8048;50.644;6.184;2022-10-26T14:05:09;25.40;65.80
15900;DHT22;8048;50.644;6.184;2022-10-26T14:07:50;25.60;64.20
15900;DHT22;8048;50.644;6.184;2022-10-26T14:10:37;25.40;63.80
15900;DHT22;8048;50.644;6.184;2022-10-26T14:13:11;25.30;66.00
15900;DHT22;8048;50.644;6.184;2022-10-26T14:15:45;25.00;64.70
15900;DHT22;8048;50.644;6.184;2022-10-26T14:18:22;25.00;67.80
15900;DHT22;8048;50.644;6.184;2022-10-26T14:21:00;24.90;64.20
15900;DHT22;8048;50.644;6.184;2022-10-26T14:23:27;24.60;65.80
15900;DHT22;8048;50.644;6.184;2022-10-26T14:25:54;24.70;67.00
15900;DHT22;8048;50.644;6.184;2022-10-26T14:28:25;24.60;67.60
15900;DHT22;8048;50.644;6.184;2022-10-26T14:30:50;24.70;68.00
15900;DHT22;8048;50.644;6.184;2022-10-26T14:33:27;24.50;68.30
15900;DHT22;8048;50.644;6.184;2022-10-26T14:35:53;24.30;67.60
15900;DHT22;8048;50.644;6.184;2022-10-26T14:38:24;24.00;67.70
15900;DHT22;8048;50.644;6.184;2022-10-26T14:40:55;23.60;67.10
15900;DHT22;8048;50.644;6.184;2022-10-26T14:43:22;23.30;69.00
15900;DHT22;8048;50.644;6.184;2022-10-26T14:45:50;23.10;70.60
15900;DHT22;8048;50.644;6.184;2022-10-26T14:48:22;23.00;70.80
15900;DHT22;8048;50.644;6.184;2022-10-26T14:51:08;22.90;72.60
15900;DHT22;8048;50.644;6.184;2022-10-26T14:53:37;22.90;72.90
15900;DHT22;8048;50.644;6.184;2022-10-26T14:58:41;22.60;73.20
15900;DHT22;8048;50.644;6.184;2022-10-26T15:01:23;22.40;73.20
15900;DHT22;8048;50.644;6.184;2022-10-26T15:03:54;22.40;74.00
15900;DHT22;8048;50.644;6.184;2022-10-26T15:08:58;22.20;75.20
15900;DHT22;8048;50.644;6.184;2022-10-26T15:11:29;22.10;75.60
15900;DHT22;8048;50.644;6.184;2022-10-26T15:13:56;22.00;78.50
15900;DHT22;8048;50.644;6.184;2022-10-26T15:16:32;22.00;77.40
15900;DHT22;8048;50.644;6.184;2022-10-26T15:19:18;21.90;77.30
15900;DHT22;8048;50.644;6.184;2022-10-26T15:21:48;21.80;76.70
15900;DHT22;8048;50.644;6.184;2022-10-26T15:24:28;21.60;80.50
15900;DHT22;8048;50.644;6.184;2022-10-26T15:26:55;21.40;78.20
15900;DHT22;8048;50.644;6.184;2022-10-26T15:29:44;21.30;80.40
15900;DHT22;8048;50.644;6.184;2022-10-26T15:37:47;20.80;80.50
15900;DHT22;8048;50.644;6.184;2022-10-26T15:40:13;20.60;82.50
15900;DHT22;8048;50.644;6.184;2022-10-26T15:42:40;20.50;83.60
15900;DHT22;8048;50.644;6.184;2022-10-26T15:45:16;20.40;85.50
15900;DHT22;8048;50.644;6.184;2022-10-26T15:47:42;20.30;83.30
15900;DHT22;8048;50.644;6.184;2022-10-26T15:50:16;20.30;84.40
15900;DHT22;8048;50.644;6.184;2022-10-26T15:52:42;20.20;86.70
15900;DHT22;8048;50.644;6.184;2022-10-26T15:55:08;20.10;86.60
15900;DHT22;8048;50.644;6.184;2022-10-26T15:57:34;20.00;84.90
15900;DHT22;8048;50.644;6.184;2022-10-26T16:00:00;19.90;86.20
15900;DHT22;8048;50.644;6.184;2022-10-26T16:02:26;19.70;87.20
15900;DHT22;8048;50.644;6.184;2022-10-26T16:04:52;19.60;87.20
15900;DHT22;8048;50.644;6.184;2022-10-26T16:07:19;19.50;86.60
15900;DHT22;8048;50.644;6.184;2022-10-26T16:09:45;19.40;87.20
15900;DHT22;8048;50.644;6.184;2022-10-26T16:12:11;19.30;88.00
15900;DHT22;8048;50.644;6.184;2022-10-26T16:14:38;19.20;88.20
15900;DHT22;8048;50.644;6.184;2022-10-26T16:17:04;19.00;88.10
15900;DHT22;8048;50.644;6.184;2022-10-26T16:19:30;18.90;89.80
15900;DHT22;8048;50.644;6.184;2022-10-26T16:21:55;18.70;90.10
15900;DHT22;8048;50.644;6.184;2022-10-26T16:24:21;18.70;90.00
15900;DHT22;8048;50.644;6.184;2022-10-26T16:26:47;18.60;90.80
15900;DHT22;8048;50.644;6.184;2022-10-26T16:29:12;18.50;90.50
15900;DHT22;8048;50.644;6.184;2022-10-26T16:31:38;18.50;90.30
15900;DHT22;8048;50.644;6.184;2022-10-26T16:34:03;18.40;90.70
15900;DHT22;8048;50.644;6.184;2022-10-26T16:36:29;18.20;90.90
15900;DHT22;8048;50.644;6.184;2022-10-26T16:38:57;18.20;91.20
15900;DHT22;8048;50.644;6.184;2022-10-26T16:41:22;18.10;91.10
15900;DHT22;8048;50.644;6.184;2022-10-26T16:43:47;18.00;91.30
15900;DHT22;8048;50.644;6.184;2022-10-26T16:46:18;18.00;91.40
15900;DHT22;8048;50.644;6.184;2022-10-26T16:48:45;17.80;91.40
15900;DHT22;8048;50.644;6.184;2022-10-26T16:51:17;17.80;91.80
15900;DHT22;8048;50.644;6.184;2022-10-26T16:53:46;17.80;92.10
15900;DHT22;8048;50.644;6.184;2022-10-26T16:56:20;17.80;91.80
15900;DHT22;8048;50.644;6.184;2022-10-26T16:58:46;17.60;92.10
15900;DHT22;8048;50.644;6.184;2022-10-26T17:01:13;17.60;91.80
15900;DHT22;8048;50.644;6.184;2022-10-26T17:03:46;17.50;92.00
15900;DHT22;8048;50.644;6.184;2022-10-26T17:06:11;17.40;92.70
15900;DHT22;8048;50.644;6.184;2022-10-26T17:08:37;17.20;92.80
15900;DHT22;8048;50.644;6.184;2022-10-26T17:11:04;17.20;93.40
15900;DHT22;8048;50.644;6.184;2022-10-26T17:13:30;17.20;93.30
15900;DHT22;8048;50.644;6.184;2022-10-26T17:16:16;17.10;93.50
15900;DHT22;8048;50.644;6.184;2022-10-26T17:18:42;17.10;93.80
15900;DHT22;8048;50.644;6.184;2022-10-26T17:21:10;17.10;93.80
15900;DHT22;8048;50.644;6.184;2022-10-26T17:23:35;17.10;94.20
15900;DHT22;8048;50.644;6.184;2022-10-26T17:26:02;17.00;94.50
15900;DHT22;8048;50.644;6.184;2022-10-26T17:28:29;17.00;94.60
15900;DHT22;8048;50.644;6.184;2022-10-26T17:31:04;16.90;94.40
15900;DHT22;8048;50.644;6.184;2022-10-26T17:33:32;16.80;94.60
15900;DHT22;8048;50.644;6.184;2022-10-26T17:35:58;16.80;94.80
15900;DHT22;8048;50.644;6.184;2022-10-26T17:38:24;16.70;95.30
15900;DHT22;8048;50.644;6.184;2022-10-26T17:40:50;16.60;95.50
15900;DHT22;8048;50.644;6.184;2022-10-26T17:43:15;16.60;96.10
15900;DHT22;8048;50.644;6.184;2022-10-26T17:45:41;16.70;96.20
15900;DHT22;8048;50.644;6.184;2022-10-26T17:48:06;16.60;96.20
15900;DHT22;8048;50.644;6.184;2022-10-26T17:50:32;16.60;96.50
15900;DHT22;8048;50.644;6.184;2022-10-26T17:52:57;16.60;96.00
15900;DHT22;8048;50.644;6.184;2022-10-26T17:55:23;16.60;96.50
15900;DHT22;8048;50.644;6.184;2022-10-26T17:57:48;16.50;96.60
15900;DHT22;8048;50.644;6.184;2022-10-26T18:00:14;16.50;96.80
15900;DHT22;8048;50.644;6.184;2022-10-26T18:02:39;16.40;97.30
15900;DHT22;8048;50.644;6.184;2022-10-26T18:05:06;16.40;97.60
15900;DHT22;8048;50.644;6.184;2022-10-26T18:07:31;16.40;97.80
15900;DHT22;8048;50.644;6.184;2022-10-26T18:09:57;16.30;98.10
15900;DHT22;8048;50.644;6.184;2022-10-26T18:12:23;16.30;98.20
15900;DHT22;8048;50.644;6.184;2022-10-26T18:14:48;16.20;98.30
15900;DHT22;8048;50.644;6.184;2022-10-26T18:17:14;16.20;98.40
15900;DHT22;8048;50.644;6.184;2022-10-26T18:19:39;16.10;98.80
15900;DHT22;8048;50.644;6.184;2022-10-26T18:22:05;16.00;98.80
15900;DHT22;8048;50.644;6.184;2022-10-26T18:24:30;16.00;98.60
15900;DHT22;8048;50.644;6.184;2022-10-26T18:26:56;16.00;98.80